sensor_id;sensor_type;location;lat;lon;timestamp;pressure;altitude;pressure_sealevel;temperature;humidity
73316;BME280;61545;53.726;-0.444;2023-05-29T00:03:35;1025.8;;;10.0;100.0
73316;BME280;61545;53.726;-0.444;2023-05-29T00:08:37;1025.7;;;10.0;100.0
73316;BME280;61545;53.726;-0.444;2023-05-29T00:13:38;1025.7;;;9.9;100.0
73316;BME280;61545;53.726;-0.444;2023-05-29T00:18:34;1025.8;;;10.0;100.0
73316;BME280;61545;53.726;-0.444;2023-05-29T00:23:34;1025.8;;;10.0;100.0
73316;BME280;61545;53.726;-0.444;2023-05-29T00:28:34;1025.9;;;10.0;100.0
73316;BME280;61545;53.726;-0.444;2023-05-29T00:33:34;1025.8;;;9.9;100.0
73316;BME280;61545;53.726;-0.444;2023-05-29T00:38:34;1025.9;;;9.9;100.0
73316;BME280;61545;53.726;-0.444;2023-05-29T00:43:34;1025.8;;;9.9;100.0
73316;BME280;61545;53.726;-0.444;2023-05-29T00:48:37;1025.8;;;9.9;100.0
73316;BME280;61545;53.726;-0.444;2023-05-29T00:53:44;1025.8;;;9.9;100.0
73316;BME280;61545;53.726;-0.444;2023-05-29T00:58:46;1025.8;;;9.9;100.0
73316;BME280;61545;53.726;-0.444;2023-05-29T01:03:50;1025.7;;;9.9;100.0
73316;BME280;61545;53.726;-0.444;2023-05-29T01:08:46;1025.7;;;9.8;100.0
73316;BME280;61545;53.726;-0.444;2023-05-29T01:13:54;1025.7;;;9.9;100.0
73316;BME280;61545;53.726;-0.444;2023-05-29T01:18:44;1025.7;;;9.7;100.0
73316;BME280;61545;53.726;-0.444;2023-05-29T01:23:52;1025.8;;;9.9;100.0
73316;BME280;61545;53.726;-0.444;2023-05-29T01:28:41;1025.8;;;9.7;100.0
73316;BME280;61545;53.726;-0.444;2023-05-29T01:33:34;1025.8;;;9.7;100.0
73316;BME280;61545;53.726;-0.444;2023-05-29T01:38:36;1025.9;;;9.6;100.0
73316;BME280;61545;53.726;-0.444;2023-05-29T01:43:36;1025.9;;;9.6;100.0
73316;BME280;61545;53.726;-0.444;2023-05-29T01:48:36;1025.8;;;9.4;100.0
73316;BME280;61545;53.726;-0.444;2023-05-29T01:53:35;1025.9;;;9.5;100.0
73316;BME280;61545;53.726;-0.444;2023-05-29T01:58:37;1025.9;;;9.5;100.0
73316;BME280;61545;53.726;-0.444;2023-05-29T02:03:39;1025.8;;;9.4;100.0
73316;BME280;61545;53.726;-0.444;2023-05-29T02:08:34;1025.8;;;9.2;100.0
73316;BME280;61545;53.726;-0.444;2023-05-29T02:13:34;1025.9;;;9.2;100.0
73316;BME280;61545;53.726;-0.444;2023-05-29T02:18:36;1025.9;;;9.3;100.0
73316;BME280;61545;53.726;-0.444;2023-05-29T02:23:36;1026.0;;;9.3;100.0
73316;BME280;61545;53.726;-0.444;2023-05-29T02:28:34;1025.9;;;9.4;100.0
73316;BME280;61545;53.726;-0.444;2023-05-29T02:33:34;1025.9;;;9.5;100.0
73316;BME280;61545;53.726;-0.444;2023-05-29T02:38:37;1025.8;;;9.5;100.0
73316;BME280;61545;53.726;-0.444;2023-05-29T02:43:36;1026.0;;;9.5;100.0
73316;BME280;61545;53.726;-0.444;2023-05-29T02:48:34;1025.9;;;9.4;100.0
73316;BME280;61545;53.726;-0.444;2023-05-29T02:53:36;1025.8;;;9.5;100.0
73316;BME280;61545;53.726;-0.444;2023-05-29T02:58:38;1025.9;;;9.5;100.0
73316;BME280;61545;53.726;-0.444;2023-05-29T03:03:34;1025.8;;;9.6;100.0
73316;BME280;61545;53.726;-0.444;2023-05-29T03:08:36;1025.8;;;9.6;100.0
73316;BME280;61545;53.726;-0.444;2023-05-29T03:13:34;1025.8;;;9.5;100.0
73316;BME280;61545;53.726;-0.444;2023-05-29T03:18:34;1025.8;;;9.5;100.0
73316;BME280;61545;53.726;-0.444;2023-05-29T03:23:34;1025.8;;;9.5;100.0
73316;BME280;61545;53.726;-0.444;2023-05-29T03:28:34;1025.8;;;9.5;100.0
73316;BME280;61545;53.726;-0.444;2023-05-29T03:33:39;1025.9;;;9.5;100.0
73316;BME280;61545;53.726;-0.444;2023-05-29T03:38:36;1025.9;;;9.6;100.0
73316;BME280;61545;53.726;-0.444;2023-05-29T03:43:34;1026.0;;;9.5;100.0
73316;BME280;61545;53.726;-0.444;2023-05-29T03:48:36;1026.0;;;9.5;100.0
73316;BME280;61545;53.726;-0.444;2023-05-29T03:53:34;1026.0;;;9.6;100.0
73316;BME280;61545;53.726;-0.444;2023-05-29T03:58:36;1026.0;;;9.5;100.0
73316;BME280;61545;53.726;-0.444;2023-05-29T04:03:34;1026.0;;;9.5;100.0
73316;BME280;61545;53.726;-0.444;2023-05-29T04:08:34;1026.0;;;9.4;100.0
73316;BME280;61545;53.726;-0.444;2023-05-29T04:13:36;1026.0;;;9.3;100.0
73316;BME280;61545;53.726;-0.444;2023-05-29T04:18:34;1026.1;;;9.2;100.0
73316;BME280;61545;53.726;-0.444;2023-05-29T04:23:34;1026.1;;;9.4;100.0
73316;BME280;61545;53.726;-0.444;2023-05-29T04:28:34;1026.1;;;9.3;100.0
73316;BME280;61545;53.726;-0.444;2023-05-29T04:33:34;1026.1;;;9.2;100.0
73316;BME280;61545;53.726;-0.444;2023-05-29T04:38:36;1026.2;;;9.3;100.0
73316;BME280;61545;53.726;-0.444;2023-05-29T04:43:34;1026.1;;;9.2;100.0
73316;BME280;61545;53.726;-0.444;2023-05-29T04:48:36;1026.2;;;9.4;100.0
73316;BME280;61545;53.726;-0.444;2023-05-29T04:53:37;1026.2;;;9.4;100.0
73316;BME280;61545;53.726;-0.444;2023-05-29T04:58:36;1026.2;;;9.5;100.0
73316;BME280;61545;53.726;-0.444;2023-05-29T05:03:36;1026.2;;;9.5;100.0
73316;BME280;61545;53.726;-0.444;2023-05-29T05:08:38;1026.3;;;9.7;100.0
73316;BME280;61545;53.726;-0.444;2023-05-29T05:13:38;1026.3;;;9.7;100.0
73316;BME280;61545;53.726;-0.444;2023-05-29T05:18:34;1026.4;;;9.7;100.0
73316;BME280;61545;53.726;-0.444;2023-05-29T05:23:34;1026.4;;;9.7;100.0
73316;BME280;61545;53.726;-0.444;2023-05-29T05:28:36;1026.4;;;9.8;100.0
73316;BME280;61545;53.726;-0.444;2023-05-29T05:33:36;1026.4;;;10.0;100.0
73316;BME280;61545;53.726;-0.444;2023-05-29T05:38:34;1026.4;;;10.0;100.0
73316;BME280;61545;53.726;-0.444;2023-05-29T05:43:34;1026.4;;;10.0;100.0
73316;BME280;61545;53.726;-0.444;2023-05-29T05:48:36;1026.5;;;10.1;100.0
73316;BME280;61545;53.726;-0.444;2023-05-29T05:53:36;1026.5;;;10.0;100.0
73316;BME280;61545;53.726;-0.444;2023-05-29T05:58:37;1026.6;;;10.2;100.0
73316;BME280;61545;53.726;-0.444;2023-05-29T06:03:36;1026.5;;;10.2;100.0
73316;BME280;61545;53.726;-0.444;2023-05-29T06:08:46;1026.5;;;10.1;100.0
73316;BME280;61545;53.726;-0.444;2023-05-29T06:13:51;1026.6;;;10.2;100.0
73316;BME280;61545;53.726;-0.444;2023-05-29T06:18:56;1026.6;;;10.2;100.0
73316;BME280;61545;53.726;-0.444;2023-05-29T06:23:57;1026.6;;;10.4;100.0
73316;BME280;61545;53.726;-0.444;2023-05-29T06:28:46;1026.6;;;10.7;100.0
73316;BME280;61545;53.726;-0.444;2023-05-29T06:33:57;1026.6;;;10.8;100.0
73316;BME280;61545;53.726;-0.444;2023-05-29T06:38:57;1026.6;;;11.2;100.0
73316;BME280;61545;53.726;-0.444;2023-05-29T06:43:37;1026.7;;;11.2;100.0
73316;BME280;61545;53.726;-0.444;2023-05-29T06:48:42;1026.8;;;11.2;100.0
73316;BME280;61545;53.726;-0.444;2023-05-29T06:53:34;1026.8;;;11.3;100.0
73316;BME280;61545;53.726;-0.444;2023-05-29T06:58:36;1026.8;;;11.5;100.0
73316;BME280;61545;53.726;-0.444;2023-05-29T07:03:34;1026.8;;;11.7;100.0
73316;BME280;61545;53.726;-0.444;2023-05-29T07:08:50;1026.8;;;12.0;100.0
73316;BME280;61545;53.726;-0.444;2023-05-29T07:13:46;1026.8;;;12.2;100.0
73316;BME280;61545;53.726;-0.444;2023-05-29T07:18:37;1026.7;;;12.0;100.0
73316;BME280;61545;53.726;-0.444;2023-05-29T07:23:34;1026.7;;;11.9;100.0
73316;BME280;61545;53.726;-0.444;2023-05-29T07:28:34;1026.7;;;12.0;100.0
73316;BME280;61545;53.726;-0.444;2023-05-29T07:33:56;1026.7;;;12.5;100.0
73316;BME280;61545;53.726;-0.444;2023-05-29T07:38:45;1026.7;;;12.9;100.0
73316;BME280;61545;53.726;-0.444;2023-05-29T07:43:36;1026.7;;;12.6;100.0
73316;BME280;61545;53.726;-0.444;2023-05-29T07:48:37;1026.7;;;12.4;100.0
73316;BME280;61545;53.726;-0.444;2023-05-29T07:53:45;1026.8;;;12.9;100.0
73316;BME280;61545;53.726;-0.444;2023-05-29T07:58:46;1026.9;;;12.6;100.0
73316;BME280;61545;53.726;-0.444;2023-05-29T08:03:44;1026.9;;;12.1;100.0
73316;BME280;61545;53.726;-0.444;2023-05-29T08:08:46;1026.9;;;11.9;100.0
73316;BME280;61545;53.726;-0.444;2023-05-29T08:13:37;1027.0;;;12.2;100.0
73316;BME280;61545;53.726;-0.444;2023-05-29T08:18:34;1027.0;;;12.4;100.0
73316;BME280;61545;53.726;-0.444;2023-05-29T08:23:36;1027.1;;;13.2;100.0
73316;BME280;61545;53.726;-0.444;2023-05-29T08:28:37;1027.0;;;13.6;100.0
73316;BME280;61545;53.726;-0.444;2023-05-29T08:33:56;1027.1;;;13.8;100.0
73316;BME280;61545;53.726;-0.444;2023-05-29T08:38:45;1027.2;;;13.4;100.0
73316;BME280;61545;53.726;-0.444;2023-05-29T08:43:37;1027.2;;;13.7;100.0
73316;BME280;61545;53.726;-0.444;2023-05-29T08:48:36;1027.3;;;13.1;100.0
73316;BME280;61545;53.726;-0.444;2023-05-29T08:53:34;1027.3;;;13.4;100.0
73316;BME280;61545;53.726;-0.444;2023-05-29T08:58:38;1027.2;;;15.2;100.0
73316;BME280;61545;53.726;-0.444;2023-05-29T09:03:37;1027.1;;;14.6;100.0
73316;BME280;61545;53.726;-0.444;2023-05-29T09:08:37;1027.3;;;14.1;100.0
73316;BME280;61545;53.726;-0.444;2023-05-29T09:13:36;1027.1;;;14.8;100.0
73316;BME280;61545;53.726;-0.444;2023-05-29T09:18:36;1027.0;;;15.9;100.0
73316;BME280;61545;53.726;-0.444;2023-05-29T09:23:34;1027.0;;;16.2;100.0
73316;BME280;61545;53.726;-0.444;2023-05-29T09:28:34;1027.0;;;15.5;100.0
73316;BME280;61545;53.726;-0.444;2023-05-29T09:33:46;1027.0;;;14.6;100.0
73316;BME280;61545;53.726;-0.444;2023-05-29T09:38:45;1027.1;;;15.4;100.0
73316;BME280;61545;53.726;-0.444;2023-05-29T09:43:50;1027.2;;;14.7;100.0
73316;BME280;61545;53.726;-0.444;2023-05-29T09:48:46;1027.2;;;14.9;100.0
73316;BME280;61545;53.726;-0.444;2023-05-29T09:53:51;1027.2;;;14.7;100.0
73316;BME280;61545;53.726;-0.444;2023-05-29T09:58:37;1027.2;;;14.4;100.0
73316;BME280;61545;53.726;-0.444;2023-05-29T10:03:37;1027.3;;;14.2;100.0
73316;BME280;61545;53.726;-0.444;2023-05-29T10:08:34;1027.4;;;14.0;100.0
73316;BME280;61545;53.726;-0.444;2023-05-29T10:13:38;1027.3;;;14.9;100.0
73316;BME280;61545;53.726;-0.444;2023-05-29T10:18:38;1027.3;;;14.7;100.0
73316;BME280;61545;53.726;-0.444;2023-05-29T10:23:48;1027.3;;;14.2;100.0
73316;BME280;61545;53.726;-0.444;2023-05-29T10:28:34;1027.3;;;14.5;100.0
73316;BME280;61545;53.726;-0.444;2023-05-29T10:33:45;1027.3;;;14.5;100.0
73316;BME280;61545;53.726;-0.444;2023-05-29T10:38:40;1027.2;;;14.6;100.0
73316;BME280;61545;53.726;-0.444;2023-05-29T10:43:36;1027.2;;;14.3;100.0
73316;BME280;61545;53.726;-0.444;2023-05-29T10:48:38;1027.2;;;14.9;100.0
73316;BME280;61545;53.726;-0.444;2023-05-29T10:53:36;1027.2;;;15.1;100.0
73316;BME280;61545;53.726;-0.444;2023-05-29T10:58:39;1027.1;;;14.9;100.0
73316;BME280;61545;53.726;-0.444;2023-05-29T11:03:34;1027.2;;;15.2;100.0
73316;BME280;61545;53.726;-0.444;2023-05-29T11:08:34;1027.1;;;14.8;100.0
73316;BME280;61545;53.726;-0.444;2023-05-29T11:13:35;1027.1;;;15.2;100.0
73316;BME280;61545;53.726;-0.444;2023-05-29T11:18:38;1027.1;;;15.2;100.0
73316;BME280;61545;53.726;-0.444;2023-05-29T11:23:39;1027.2;;;15.0;100.0
73316;BME280;61545;53.726;-0.444;2023-05-29T11:28:34;1027.1;;;15.1;100.0
73316;BME280;61545;53.726;-0.444;2023-05-29T11:33:39;1027.2;;;14.8;100.0
73316;BME280;61545;53.726;-0.444;2023-05-29T11:38:45;1027.1;;;15.1;100.0
73316;BME280;61545;53.726;-0.444;2023-05-29T11:43:37;1027.2;;;14.9;100.0
73316;BME280;61545;53.726;-0.444;2023-05-29T11:48:45;1027.2;;;14.5;100.0
73316;BME280;61545;53.726;-0.444;2023-05-29T11:53:39;1027.2;;;15.0;100.0
73316;BME280;61545;53.726;-0.444;2023-05-29T11:58:36;1027.2;;;15.4;100.0
73316;BME280;61545;53.726;-0.444;2023-05-29T12:03:37;1027.1;;;15.2;100.0
73316;BME280;61545;53.726;-0.444;2023-05-29T12:08:37;1027.2;;;15.0;100.0
73316;BME280;61545;53.726;-0.444;2023-05-29T12:13:59;1027.2;;;15.4;100.0
73316;BME280;61545;53.726;-0.444;2023-05-29T12:18:37;1027.1;;;15.4;100.0
73316;BME280;61545;53.726;-0.444;2023-05-29T12:23:37;1027.1;;;15.0;100.0
73316;BME280;61545;53.726;-0.444;2023-05-29T12:28:42;1027.0;;;15.0;100.0
73316;BME280;61545;53.726;-0.444;2023-05-29T12:33:47;1027.1;;;15.0;100.0
73316;BME280;61545;53.726;-0.444;2023-05-29T12:38:59;1027.1;;;15.0;100.0
73316;BME280;61545;53.726;-0.444;2023-05-29T12:43:37;1027.2;;;15.3;100.0
73316;BME280;61545;53.726;-0.444;2023-05-29T12:48:45;1027.2;;;15.5;100.0
73316;BME280;61545;53.726;-0.444;2023-05-29T12:53:37;1027.2;;;15.1;100.0
73316;BME280;61545;53.726;-0.444;2023-05-29T12:58:58;1027.2;;;15.2;100.0
73316;BME280;61545;53.726;-0.444;2023-05-29T13:03:35;1027.2;;;15.0;100.0
73316;BME280;61545;53.726;-0.444;2023-05-29T13:08:39;1027.2;;;15.2;100.0
73316;BME280;61545;53.726;-0.444;2023-05-29T13:13:34;1027.3;;;15.5;100.0
73316;BME280;61545;53.726;-0.444;2023-05-29T13:18:34;1027.1;;;15.1;100.0
73316;BME280;61545;53.726;-0.444;2023-05-29T13:23:36;1027.1;;;15.0;100.0
73316;BME280;61545;53.726;-0.444;2023-05-29T13:28:34;1027.1;;;14.9;100.0
73316;BME280;61545;53.726;-0.444;2023-05-29T13:33:37;1027.0;;;15.0;100.0
73316;BME280;61545;53.726;-0.444;2023-05-29T13:38:37;1027.1;;;14.7;100.0
73316;BME280;61545;53.726;-0.444;2023-05-29T13:43:37;1027.1;;;14.9;100.0
73316;BME280;61545;53.726;-0.444;2023-05-29T13:48:37;1027.2;;;14.6;100.0
73316;BME280;61545;53.726;-0.444;2023-05-29T13:53:37;1027.3;;;14.5;100.0
73316;BME280;61545;53.726;-0.444;2023-05-29T13:58:47;1027.2;;;14.6;100.0
73316;BME280;61545;53.726;-0.444;2023-05-29T14:03:54;1027.2;;;14.6;100.0
73316;BME280;61545;53.726;-0.444;2023-05-29T14:08:37;1027.1;;;14.7;100.0
73316;BME280;61545;53.726;-0.444;2023-05-29T14:13:37;1027.1;;;14.8;100.0
73316;BME280;61545;53.726;-0.444;2023-05-29T14:18:37;1027.2;;;14.7;100.0
73316;BME280;61545;53.726;-0.444;2023-05-29T14:23:37;1027.2;;;15.0;100.0
73316;BME280;61545;53.726;-0.444;2023-05-29T14:28:46;1027.1;;;14.6;100.0
73316;BME280;61545;53.726;-0.444;2023-05-29T14:33:36;1027.2;;;14.8;100.0
73316;BME280;61545;53.726;-0.444;2023-05-29T14:38:36;1027.1;;;14.9;100.0
73316;BME280;61545;53.726;-0.444;2023-05-29T14:43:37;1027.1;;;15.0;100.0
73316;BME280;61545;53.726;-0.444;2023-05-29T14:48:36;1027.1;;;14.4;100.0
73316;BME280;61545;53.726;-0.444;2023-05-29T14:53:36;1027.1;;;14.5;100.0
73316;BME280;61545;53.726;-0.444;2023-05-29T14:58:37;1027.0;;;14.7;100.0
73316;BME280;61545;53.726;-0.444;2023-05-29T15:03:55;1027.0;;;14.6;100.0
73316;BME280;61545;53.726;-0.444;2023-05-29T15:08:51;1027.1;;;14.5;100.0
73316;BME280;61545;53.726;-0.444;2023-05-29T15:13:45;1027.2;;;14.5;100.0
73316;BME280;61545;53.726;-0.444;2023-05-29T15:18:47;1027.2;;;14.7;100.0
73316;BME280;61545;53.726;-0.444;2023-05-29T15:23:37;1027.2;;;14.7;100.0
73316;BME280;61545;53.726;-0.444;2023-05-29T15:28:45;1027.2;;;14.7;100.0
73316;BME280;61545;53.726;-0.444;2023-05-29T15:33:37;1027.2;;;14.6;100.0
73316;BME280;61545;53.726;-0.444;2023-05-29T15:38:36;1027.2;;;14.5;100.0
73316;BME280;61545;53.726;-0.444;2023-05-29T15:43:40;1027.2;;;14.4;100.0
73316;BME280;61545;53.726;-0.444;2023-05-29T15:48:37;1027.3;;;14.2;100.0
73316;BME280;61545;53.726;-0.444;2023-05-29T15:53:37;1027.3;;;14.5;100.0
73316;BME280;61545;53.726;-0.444;2023-05-29T15:58:34;1027.3;;;14.2;100.0
73316;BME280;61545;53.726;-0.444;2023-05-29T16:03:35;1027.4;;;14.2;100.0
73316;BME280;61545;53.726;-0.444;2023-05-29T16:08:35;1027.4;;;13.7;100.0
73316;BME280;61545;53.726;-0.444;2023-05-29T16:13:37;1027.4;;;13.7;100.0
73316;BME280;61545;53.726;-0.444;2023-05-29T16:18:38;1027.4;;;13.5;100.0
73316;BME280;61545;53.726;-0.444;2023-05-29T16:23:34;1027.4;;;13.7;100.0
73316;BME280;61545;53.726;-0.444;2023-05-29T16:28:36;1027.4;;;13.7;100.0
73316;BME280;61545;53.726;-0.444;2023-05-29T16:33:39;1027.3;;;13.7;100.0
73316;BME280;61545;53.726;-0.444;2023-05-29T16:38:36;1027.3;;;13.7;100.0
73316;BME280;61545;53.726;-0.444;2023-05-29T16:43:36;1027.3;;;13.7;100.0
73316;BME280;61545;53.726;-0.444;2023-05-29T16:48:34;1027.4;;;13.6;100.0
73316;BME280;61545;53.726;-0.444;2023-05-29T16:53:34;1027.3;;;13.6;100.0
73316;BME280;61545;53.726;-0.444;2023-05-29T16:58:37;1027.4;;;13.5;100.0
73316;BME280;61545;53.726;-0.444;2023-05-29T17:03:36;1027.4;;;13.5;100.0
73316;BME280;61545;53.726;-0.444;2023-05-29T17:08:39;1027.5;;;13.5;100.0
73316;BME280;61545;53.726;-0.444;2023-05-29T17:13:38;1027.5;;;13.4;100.0
73316;BME280;61545;53.726;-0.444;2023-05-29T17:18:54;1027.5;;;13.4;100.0
73316;BME280;61545;53.726;-0.444;2023-05-29T17:23:37;1027.5;;;13.5;100.0
73316;BME280;61545;53.726;-0.444;2023-05-29T17:28:58;1027.4;;;13.4;100.0
73316;BME280;61545;53.726;-0.444;2023-05-29T17:33:37;1027.5;;;13.4;100.0
73316;BME280;61545;53.726;-0.444;2023-05-29T17:38:37;1027.5;;;13.3;100.0
73316;BME280;61545;53.726;-0.444;2023-05-29T17:43:55;1027.5;;;13.1;100.0
73316;BME280;61545;53.726;-0.444;2023-05-29T17:48:36;1027.6;;;13.4;100.0
73316;BME280;61545;53.726;-0.444;2023-05-29T17:53:38;1027.5;;;13.2;100.0
73316;BME280;61545;53.726;-0.444;2023-05-29T17:58:35;1027.6;;;13.2;100.0
73316;BME280;61545;53.726;-0.444;2023-05-29T18:03:37;1027.6;;;13.0;100.0
73316;BME280;61545;53.726;-0.444;2023-05-29T18:08:37;1027.6;;;12.8;100.0
73316;BME280;61545;53.726;-0.444;2023-05-29T18:13:37;1027.6;;;12.7;100.0
73316;BME280;61545;53.726;-0.444;2023-05-29T18:18:37;1027.7;;;12.7;100.0
73316;BME280;61545;53.726;-0.444;2023-05-29T18:23:37;1027.7;;;12.6;100.0
73316;BME280;61545;53.726;-0.444;2023-05-29T18:28:47;1027.8;;;12.5;100.0
73316;BME280;61545;53.726;-0.444;2023-05-29T18:33:37;1027.8;;;12.4;100.0
73316;BME280;61545;53.726;-0.444;2023-05-29T18:38:34;1027.7;;;12.2;100.0
73316;BME280;61545;53.726;-0.444;2023-05-29T18:43:39;1027.8;;;12.2;100.0
73316;BME280;61545;53.726;-0.444;2023-05-29T18:48:36;1027.7;;;12.2;100.0
73316;BME280;61545;53.726;-0.444;2023-05-29T18:53:45;1027.7;;;12.2;100.0
73316;BME280;61545;53.726;-0.444;2023-05-29T18:58:45;1027.7;;;12.0;100.0
73316;BME280;61545;53.726;-0.444;2023-05-29T19:03:48;1027.7;;;12.0;100.0
73316;BME280;61545;53.726;-0.444;2023-05-29T19:08:51;1027.7;;;12.0;100.0
73316;BME280;61545;53.726;-0.444;2023-05-29T19:13:35;1027.7;;;11.7;100.0
73316;BME280;61545;53.726;-0.444;2023-05-29T19:18:36;1027.7;;;11.6;100.0
73316;BME280;61545;53.726;-0.444;2023-05-29T19:23:37;1027.7;;;11.7;100.0
73316;BME280;61545;53.726;-0.444;2023-05-29T19:28:37;1027.7;;;11.7;100.0
73316;BME280;61545;53.726;-0.444;2023-05-29T19:33:45;1027.8;;;11.6;100.0
73316;BME280;61545;53.726;-0.444;2023-05-29T19:38:37;1027.7;;;11.5;100.0
73316;BME280;61545;53.726;-0.444;2023-05-29T19:43:37;1027.8;;;11.4;100.0
73316;BME280;61545;53.726;-0.444;2023-05-29T19:48:45;1027.8;;;11.3;100.0
73316;BME280;61545;53.726;-0.444;2023-05-29T19:53:48;1027.8;;;11.2;100.0
73316;BME280;61545;53.726;-0.444;2023-05-29T19:58:48;1027.9;;;11.2;100.0
73316;BME280;61545;53.726;-0.444;2023-05-29T20:03:46;1027.9;;;11.2;100.0
73316;BME280;61545;53.726;-0.444;2023-05-29T20:08:35;1027.9;;;11.2;100.0
73316;BME280;61545;53.726;-0.444;2023-05-29T20:13:34;1028.0;;;11.1;100.0
73316;BME280;61545;53.726;-0.444;2023-05-29T20:18:39;1028.0;;;11.0;100.0
73316;BME280;61545;53.726;-0.444;2023-05-29T20:23:34;1028.0;;;11.0;100.0
73316;BME280;61545;53.726;-0.444;2023-05-29T20:28:34;1028.1;;;10.9;100.0
73316;BME280;61545;53.726;-0.444;2023-05-29T20:33:45;1028.1;;;10.9;100.0
73316;BME280;61545;53.726;-0.444;2023-05-29T20:38:46;1028.1;;;10.8;100.0
73316;BME280;61545;53.726;-0.444;2023-05-29T20:43:46;1028.2;;;10.9;100.0
73316;BME280;61545;53.726;-0.444;2023-05-29T20:48:37;1028.1;;;10.7;100.0
73316;BME280;61545;53.726;-0.444;2023-05-29T20:53:36;1028.1;;;10.5;100.0
73316;BME280;61545;53.726;-0.444;2023-05-29T20:58:34;1028.1;;;10.6;100.0
73316;BME280;61545;53.726;-0.444;2023-05-29T21:03:38;1028.1;;;10.5;100.0
73316;BME280;61545;53.726;-0.444;2023-05-29T21:08:37;1028.0;;;10.5;100.0
73316;BME280;61545;53.726;-0.444;2023-05-29T21:13:37;1028.0;;;10.5;100.0
73316;BME280;61545;53.726;-0.444;2023-05-29T21:18:36;1028.0;;;10.2;100.0
73316;BME280;61545;53.726;-0.444;2023-05-29T21:23:37;1028.0;;;10.4;100.0
73316;BME280;61545;53.726;-0.444;2023-05-29T21:28:37;1028.1;;;10.4;100.0
73316;BME280;61545;53.726;-0.444;2023-05-29T21:33:45;1028.0;;;10.3;100.0
73316;BME280;61545;53.726;-0.444;2023-05-29T21:38:47;1028.1;;;10.2;100.0
73316;BME280;61545;53.726;-0.444;2023-05-29T21:43:58;1028.0;;;10.2;100.0
73316;BME280;61545;53.726;-0.444;2023-05-29T21:48:46;1028.0;;;10.2;100.0
73316;BME280;61545;53.726;-0.444;2023-05-29T21:53:37;1027.9;;;10.2;100.0
73316;BME280;61545;53.726;-0.444;2023-05-29T21:58:45;1027.9;;;10.2;100.0
73316;BME280;61545;53.726;-0.444;2023-05-29T22:03:37;1027.8;;;10.2;100.0
73316;BME280;61545;53.726;-0.444;2023-05-29T22:08:41;1027.9;;;10.1;100.0
73316;BME280;61545;53.726;-0.444;2023-05-29T22:13:48;1027.9;;;10.2;100.0
73316;BME280;61545;53.726;-0.444;2023-05-29T22:18:45;1027.9;;;10.1;100.0
73316;BME280;61545;53.726;-0.444;2023-05-29T22:23:37;1027.9;;;10.0;100.0
73316;BME280;61545;53.726;-0.444;2023-05-29T22:28:37;1027.9;;;10.0;100.0
73316;BME280;61545;53.726;-0.444;2023-05-29T22:33:45;1027.9;;;10.0;100.0
73316;BME280;61545;53.726;-0.444;2023-05-29T22:38:37;1027.9;;;9.9;100.0
73316;BME280;61545;53.726;-0.444;2023-05-29T22:43:36;1027.9;;;9.9;100.0
73316;BME280;61545;53.726;-0.444;2023-05-29T22:48:36;1028.0;;;9.9;100.0
73316;BME280;61545;53.726;-0.444;2023-05-29T22:53:36;1027.9;;;9.9;100.0
73316;BME280;61545;53.726;-0.444;2023-05-29T22:58:34;1028.0;;;9.8;100.0
73316;BME280;61545;53.726;-0.444;2023-05-29T23:03:34;1027.9;;;9.7;100.0
73316;BME280;61545;53.726;-0.444;2023-05-29T23:08:36;1028.0;;;9.7;100.0
73316;BME280;61545;53.726;-0.444;2023-05-29T23:13:34;1028.0;;;9.7;100.0
73316;BME280;61545;53.726;-0.444;2023-05-29T23:18:37;1028.0;;;9.6;100.0
73316;BME280;61545;53.726;-0.444;2023-05-29T23:23:47;1028.0;;;9.6;100.0
73316;BME280;61545;53.726;-0.444;2023-05-29T23:28:48;1028.1;;;9.6;100.0
73316;BME280;61545;53.726;-0.444;2023-05-29T23:33:37;1028.1;;;9.6;100.0
73316;BME280;61545;53.726;-0.444;2023-05-29T23:38:58;1028.1;;;9.5;100.0
73316;BME280;61545;53.726;-0.444;2023-05-29T23:43:34;1028.1;;;9.5;100.0
73316;BME280;61545;53.726;-0.444;2023-05-29T23:48:34;1028.2;;;9.4;100.0
73316;BME280;61545;53.726;-0.444;2023-05-29T23:53:37;1028.1;;;9.5;100.0
73316;BME280;61545;53.726;-0.444;2023-05-29T23:58:34;1028.1;;;9.4;100.0
